Time;durP1;ratioP1;P1;durP2;ratioP2;P2;SDS_P1;SDS_P2;PMS_P1;PMS_P2;Temp;Humidity;BMP_temperature;BMP_pressure;BME280_temperature;BME280_humidity;BME280_pressure;Samples;Min_cycle;Max_cycle;Signal;HPM_P1;HPM_P2
2021/05/03 00:02:13;;;;;;;4.10;3.13;;;4.20;99.90;;;;;;4456374;32;20207;-72
2021/05/03 00:04:40;;;;;;;4.20;3.13;;;4.10;99.90;;;;;;4455914;32;20151;-71
2021/05/03 00:07:06;;;;;;;2.97;2.67;;;4.10;99.90;;;;;;4455986;32;20146;-71
2021/05/03 00:09:33;;;;;;;3.20;2.60;;;4.10;99.90;;;;;;4457261;32;20190;-71
2021/05/03 00:12:00;;;;;;;3.87;2.40;;;4.00;99.90;;;;;;4455899;32;20172;-70
2021/05/03 00:14:26;;;;;;;2.80;2.20;;;4.00;99.90;;;;;;4457363;32;20150;-70
2021/05/03 00:16:53;;;;;;;2.33;2.13;;;4.00;99.90;;;;;;4456100;32;20170;-70
2021/05/03 00:19:19;;;;;;;2.80;2.10;;;4.00;99.90;;;;;;4457299;32;20151;-70
2021/05/03 00:21:46;;;;;;;3.27;2.30;;;4.00;99.90;;;;;;4455816;32;20161;-70
2021/05/03 00:24:12;;;;;;;3.27;2.40;;;4.00;99.90;;;;;;4456529;32;20229;-70
2021/05/03 00:26:39;;;;;;;2.83;2.63;;;4.00;99.90;;;;;;4456626;32;20150;-68
2021/05/03 00:29:05;;;;;;;2.80;2.60;;;4.00;99.90;;;;;;4455720;32;20191;-70
2021/05/03 00:31:31;;;;;;;3.33;3.03;;;4.00;99.90;;;;;;4456933;32;20158;-71
2021/05/03 00:33:58;;;;;;;3.50;3.03;;;4.00;99.90;;;;;;4455882;32;20151;-70
2021/05/03 00:36:24;;;;;;;4.40;3.60;;;4.10;99.90;;;;;;4457149;32;20143;-69
2021/05/03 00:38:51;;;;;;;4.07;3.23;;;4.10;99.90;;;;;;4455624;32;20158;-69
2021/05/03 00:41:17;;;;;;;3.90;3.50;;;4.10;99.90;;;;;;4455191;32;20164;-70
2021/05/03 00:43:43;;;;;;;4.20;3.40;;;4.20;99.90;;;;;;4456424;32;20209;-70
2021/05/03 00:46:10;;;;;;;3.97;3.20;;;4.20;99.90;;;;;;4456268;32;20158;-70
2021/05/03 00:48:37;;;;;;;4.10;2.97;;;4.10;99.90;;;;;;4455391;32;20151;-70
2021/05/03 00:51:03;;;;;;;3.60;3.30;;;4.20;99.90;;;;;;4456652;32;20197;-70
2021/05/03 00:53:30;;;;;;;3.97;3.40;;;4.20;99.90;;;;;;4455329;32;20139;-70
2021/05/03 00:55:56;;;;;;;4.60;3.20;;;4.20;99.90;;;;;;4455102;32;20437;-70
2021/05/03 00:58:23;;;;;;;4.03;3.57;;;4.20;99.90;;;;;;4455324;32;20457;-71
2021/05/03 01:00:49;;;;;;;4.87;3.57;;;4.20;99.90;;;;;;4456737;32;20162;-71
2021/05/03 01:03:16;;;;;;;5.60;3.60;;;4.20;99.90;;;;;;4454416;32;20177;-75
2021/05/03 01:05:42;;;;;;;4.77;3.40;;;4.20;99.90;;;;;;4451967;32;20273;-74
2021/05/03 01:08:08;;;;;;;5.33;3.50;;;4.20;99.90;;;;;;4452630;32;20510;-74
2021/05/03 01:10:35;;;;;;;4.27;3.20;;;4.20;99.90;;;;;;4452438;32;20156;-75
2021/05/03 01:13:02;;;;;;;4.03;3.57;;;4.20;99.90;;;;;;4452613;32;20151;-74
2021/05/03 01:15:28;;;;;;;4.27;3.63;;;4.20;99.90;;;;;;4451987;32;20146;-74
2021/05/03 01:18:00;;;;;;;3.80;3.40;;;4.20;99.90;;;;;;4454059;32;20150;-74
2021/05/03 01:20:38;;;;;;;4.37;3.27;;;4.20;99.90;;;;;;4455156;32;20146;-74
2021/05/03 01:23:06;;;;;;;4.13;3.40;;;4.20;99.90;;;;;;4459613;32;20146;-75
2021/05/03 01:25:41;;;;;;;4.33;3.53;;;4.20;99.90;;;;;;4459172;32;20212;-74
2021/05/03 01:28:08;;;;;;;4.73;3.40;;;4.20;99.90;;;;;;4458365;32;20134;-74
2021/05/03 01:30:37;;;;;;;4.17;3.47;;;4.20;99.90;;;;;;4457393;32;20161;-75
2021/05/03 01:33:07;;;;;;;3.37;3.07;;;4.20;99.90;;;;;;4457710;32;20167;-75
2021/05/03 01:35:35;;;;;;;6.23;2.93;;;4.30;99.90;;;;;;4458184;32;20188;-75
2021/05/03 01:38:02;;;;;;;3.67;3.00;;;4.30;99.90;;;;;;4458110;32;20148;-75
2021/05/03 01:40:30;;;;;;;3.40;2.90;;;4.30;99.90;;;;;;4459035;32;20147;-75
2021/05/03 01:43:08;;;;;;;4.27;3.40;;;4.30;99.90;;;;;;4457572;32;20147;-75
2021/05/03 01:45:37;;;;;;;3.70;2.90;;;4.20;99.90;;;;;;4458019;32;20174;-76
2021/05/03 01:48:05;;;;;;;3.47;3.07;;;4.30;99.90;;;;;;4458059;32;20220;-75
2021/05/03 01:50:31;;;;;;;3.50;3.20;;;4.30;99.90;;;;;;4458040;32;20391;-74
2021/05/03 01:52:58;;;;;;;4.90;3.50;;;4.30;99.90;;;;;;4459470;32;20180;-75
2021/05/03 01:55:25;;;;;;;3.90;3.20;;;4.30;99.90;;;;;;4457776;32;20500;-74
2021/05/03 01:57:51;;;;;;;4.17;3.30;;;4.20;99.90;;;;;;4444044;32;20169;-75
2021/05/03 02:00:18;;;;;;;4.00;3.13;;;4.20;99.90;;;;;;4457820;32;20136;-75
2021/05/03 02:02:46;;;;;;;4.60;3.63;;;4.30;99.90;;;;;;4457355;32;20151;-74
2021/05/03 02:05:17;;;;;;;3.73;3.10;;;4.30;99.90;;;;;;4457647;32;20189;-75
2021/05/03 02:07:44;;;;;;;3.97;3.27;;;4.40;99.90;;;;;;4457806;32;20160;-76
2021/05/03 02:10:11;;;;;;;4.53;3.47;;;4.40;99.90;;;;;;4457629;32;20510;-74
2021/05/03 02:12:38;;;;;;;4.43;3.43;;;4.40;99.90;;;;;;4457713;32;20166;-74
2021/05/03 02:15:07;;;;;;;5.40;3.67;;;4.30;99.90;;;;;;4459145;32;20147;-75
2021/05/03 02:17:34;;;;;;;4.00;3.30;;;4.30;99.90;;;;;;4457594;32;20184;-76
2021/05/03 02:20:00;;;;;;;4.80;3.50;;;4.40;99.90;;;;;;4443935;32;20148;-76
2021/05/03 02:22:27;;;;;;;5.47;3.80;;;4.50;99.90;;;;;;4457499;32;20147;-76
2021/05/03 02:24:53;;;;;;;4.20;3.33;;;4.50;99.90;;;;;;4458913;32;20447;-76
2021/05/03 02:27:19;;;;;;;5.07;3.73;;;4.50;99.90;;;;;;4457480;32;20184;-73
2021/05/03 02:29:46;;;;;;;5.50;3.90;;;4.40;99.90;;;;;;4457354;32;20192;-77
2021/05/03 02:32:12;;;;;;;6.17;4.30;;;4.40;99.90;;;;;;4458791;32;20222;-76
2021/05/03 02:34:39;;;;;;;5.23;4.07;;;4.40;99.90;;;;;;4457373;32;20138;-76
2021/05/03 02:37:05;;;;;;;5.50;4.60;;;4.40;99.90;;;;;;4457416;32;20203;-75
2021/05/03 02:39:33;;;;;;;5.83;4.60;;;4.40;99.90;;;;;;4458829;32;20542;-75
2021/05/03 02:41:59;;;;;;;6.33;4.73;;;4.30;99.90;;;;;;4457283;32;20151;-75
2021/05/03 02:44:25;;;;;;;6.80;5.17;;;4.50;99.90;;;;;;4443263;32;20407;-76
2021/05/03 02:46:52;;;;;;;5.47;4.70;;;4.50;99.90;;;;;;4458219;32;20161;-75
2021/05/03 02:49:18;;;;;;;6.53;4.80;;;4.50;99.90;;;;;;4457149;32;20498;-75
2021/05/03 02:51:45;;;;;;;6.37;4.57;;;4.50;99.90;;;;;;4457137;32;20195;-75
2021/05/03 02:54:11;;;;;;;5.67;4.40;;;4.50;99.90;;;;;;4456873;32;20177;-75
2021/05/03 02:56:38;;;;;;;6.63;4.60;;;4.50;99.90;;;;;;4457061;32;20173;-75
2021/05/03 02:59:04;;;;;;;7.23;4.50;;;4.50;99.90;;;;;;4457672;32;20146;-75
2021/05/03 03:01:31;;;;;;;4.90;3.90;;;4.50;99.90;;;;;;4456938;32;20491;-75
2021/05/03 03:03:58;;;;;;;7.23;4.43;;;4.60;99.90;;;;;;4456902;32;20404;-74
2021/05/03 03:06:24;;;;;;;6.93;4.43;;;4.50;99.90;;;;;;4456765;32;20189;-74
2021/05/03 03:08:50;;;;;;;5.67;4.30;;;4.50;99.90;;;;;;4456765;32;20150;-74
2021/05/03 03:11:19;;;;;;;5.90;4.50;;;4.40;99.90;;;;;;4458567;32;20155;-74
2021/05/03 03:13:45;;;;;;;5.70;4.13;;;4.50;99.90;;;;;;4456840;32;20181;-74
2021/05/03 03:16:16;;;;;;;7.77;4.60;;;4.50;99.90;;;;;;4456690;32;20200;-74
2021/05/03 03:18:43;;;;;;;5.30;4.27;;;4.50;99.90;;;;;;4456293;32;20197;-74
2021/05/03 03:21:09;;;;;;;5.67;4.17;;;4.60;99.90;;;;;;4456669;32;20155;-74
2021/05/03 03:23:35;;;;;;;7.07;4.17;;;4.60;99.90;;;;;;4458186;32;20165;-73
2021/05/03 03:26:02;;;;;;;4.57;3.50;;;4.50;99.90;;;;;;4456450;32;20200;-74
2021/05/03 03:28:28;;;;;;;5.97;3.93;;;4.60;99.90;;;;;;4458020;32;20150;-73
2021/05/03 03:30:57;;;;;;;5.53;3.90;;;4.60;99.90;;;;;;4456506;32;20170;-75
2021/05/03 03:33:23;;;;;;;5.23;3.70;;;4.60;99.90;;;;;;4456077;32;20186;-74
2021/05/03 03:35:50;;;;;;;4.63;3.50;;;4.60;99.90;;;;;;4457967;32;20406;-74
2021/05/03 03:38:16;;;;;;;5.17;3.80;;;4.60;99.90;;;;;;4455929;32;20174;-74
2021/05/03 03:40:44;;;;;;;5.73;3.53;;;4.70;99.90;;;;;;4456294;32;20267;-74
2021/05/03 03:43:12;;;;;;;4.87;3.67;;;4.60;99.90;;;;;;4455865;32;20150;-75
2021/05/03 03:45:39;;;;;;;6.23;3.97;;;4.50;99.90;;;;;;4456757;32;20175;-74
2021/05/03 03:48:06;;;;;;;5.63;3.80;;;4.50;99.90;;;;;;4456516;32;20147;-74
2021/05/03 03:50:34;;;;;;;4.67;3.60;;;4.50;99.90;;;;;;4456389;32;20410;-74
2021/05/03 03:53:01;;;;;;;4.80;3.60;;;4.60;99.90;;;;;;4456027;32;20151;-74
2021/05/03 03:55:27;;;;;;;6.10;3.50;;;4.60;99.90;;;;;;4456179;32;20190;-74
2021/05/03 03:57:54;;;;;;;6.30;3.57;;;4.60;99.90;;;;;;4456031;32;20469;-74
2021/05/03 04:00:22;;;;;;;5.93;3.80;;;4.70;99.90;;;;;;4455923;32;20259;-74
2021/05/03 04:02:49;;;;;;;5.70;3.43;;;4.70;99.90;;;;;;4457554;32;20147;-74
2021/05/03 04:08:02;;;;;;;5.07;3.20;;;4.70;99.90;;;;;;4456099;32;20162;-75
2021/05/03 04:10:41;;;;;;;4.83;3.00;;;4.70;99.90;;;;;;4455975;32;20376;-75
2021/05/03 04:21:25;;;;;;;4.30;2.60;;;4.70;99.90;;;;;;4456269;32;20145;-73
2021/05/03 04:24:04;;;;;;;3.73;2.37;;;4.60;99.90;;;;;;4457341;32;20391;-75
2021/05/03 04:26:31;;;;;;;5.47;2.57;;;4.70;99.90;;;;;;4455727;32;20162;-74
2021/05/03 04:28:57;;;;;;;3.57;2.40;;;4.80;99.90;;;;;;4457211;32;20158;-75
2021/05/03 04:31:24;;;;;;;3.77;2.20;;;4.80;99.90;;;;;;4455693;32;20258;-74
2021/05/03 04:33:51;;;;;;;3.80;2.27;;;4.90;99.90;;;;;;4455075;32;20460;-75
2021/05/03 04:36:18;;;;;;;3.07;2.30;;;4.80;99.90;;;;;;4455062;32;20166;-75
2021/05/03 04:38:45;;;;;;;3.67;2.37;;;4.90;99.90;;;;;;4456068;32;20154;-76
2021/05/03 04:41:12;;;;;;;3.90;2.30;;;5.00;99.90;;;;;;4455482;32;20146;-80
2021/05/03 04:43:39;;;;;;;3.37;2.23;;;4.90;99.90;;;;;;4455676;32;20521;-76
2021/05/03 04:46:05;;;;;;;3.97;2.30;;;4.90;99.90;;;;;;4455422;32;20198;-76
2021/05/03 04:48:32;;;;;;;3.80;2.17;;;4.90;99.90;;;;;;4456988;32;20197;-76
2021/05/03 04:50:59;;;;;;;4.73;2.40;;;5.00;99.90;;;;;;4454871;32;20195;-75
2021/05/03 04:53:25;;;;;;;3.73;2.27;;;5.10;99.90;;;;;;4455432;32;20473;-75
2021/05/03 04:55:52;;;;;;;3.60;2.33;;;5.10;99.90;;;;;;4454471;32;20507;-75
2021/05/03 04:58:18;;;;;;;2.50;2.10;;;5.10;99.90;;;;;;4455433;32;20191;-75
2021/05/03 05:00:45;;;;;;;3.40;2.10;;;5.10;99.90;;;;;;4455269;32;20162;-77
2021/05/03 05:03:11;;;;;;;4.40;2.20;;;5.10;99.90;;;;;;4455370;32;20163;-77
2021/05/03 05:05:38;;;;;;;3.13;2.23;;;5.10;99.90;;;;;;4455179;32;20208;-76
2021/05/03 05:08:04;;;;;;;3.53;2.40;;;5.10;99.90;;;;;;4455603;32;20528;-76
2021/05/03 05:10:31;;;;;;;4.17;2.40;;;5.20;99.90;;;;;;4456725;32;20160;-75
2021/05/03 05:12:57;;;;;;;4.73;2.50;;;5.10;99.90;;;;;;4455204;32;20453;-75
2021/05/03 05:15:24;;;;;;;3.77;2.27;;;5.10;99.90;;;;;;4455223;32;20207;-75
2021/05/03 05:17:56;;;;;;;4.10;2.47;;;5.20;99.90;;;;;;4456996;32;20158;-75
2021/05/03 05:20:23;;;;;;;4.33;2.60;;;5.30;99.90;;;;;;4455238;32;20171;-75
2021/05/03 05:22:50;;;;;;;3.00;2.60;;;5.40;99.90;;;;;;4456641;32;20416;-75
2021/05/03 05:25:16;;;;;;;4.77;2.83;;;5.30;99.90;;;;;;4455068;32;20196;-75
2021/05/03 05:27:43;;;;;;;3.93;2.67;;;5.30;99.90;;;;;;4455654;32;20496;-75
2021/05/03 05:30:10;;;;;;;5.57;2.90;;;5.40;99.90;;;;;;4455049;32;20152;-75
2021/05/03 05:32:37;;;;;;;4.87;2.90;;;5.40;99.90;;;;;;4455796;32;20154;-75
2021/05/03 05:35:04;;;;;;;4.73;2.97;;;5.40;99.90;;;;;;4455132;32;20230;-76
2021/05/03 05:37:31;;;;;;;5.80;3.07;;;5.40;99.90;;;;;;4455027;32;20441;-74
2021/05/03 05:39:57;;;;;;;4.63;2.83;;;5.40;99.90;;;;;;4456593;32;20183;-75
2021/05/03 05:42:23;;;;;;;6.20;3.00;;;5.70;99.90;;;;;;4455075;32;20226;-75
2021/05/03 05:44:50;;;;;;;4.60;3.00;;;5.80;99.90;;;;;;4454965;32;20156;-75
2021/05/03 05:47:16;;;;;;;5.17;3.20;;;5.90;99.90;;;;;;4455756;32;20144;-75
2021/05/03 05:49:44;;;;;;;6.57;3.60;;;5.80;99.90;;;;;;4440772;32;20224;-76
2021/05/03 05:52:10;;;;;;;4.77;2.93;;;5.80;99.90;;;;;;4454309;32;20148;-76
2021/05/03 05:54:37;;;;;;;4.87;2.87;;;5.70;99.90;;;;;;4454798;32;20167;-77
2021/05/03 05:57:04;;;;;;;8.03;3.43;;;5.70;99.90;;;;;;4454987;32;20526;-75
2021/05/03 05:59:30;;;;;;;5.20;3.00;;;5.90;99.90;;;;;;4454837;32;20198;-74
2021/05/03 06:01:57;;;;;;;4.47;2.97;;;6.00;99.90;;;;;;4454696;32;20145;-75
2021/05/03 06:04:26;;;;;;;5.17;3.30;;;6.10;99.90;;;;;;4456343;32;20146;-75
2021/05/03 06:06:54;;;;;;;7.77;3.00;;;6.00;99.90;;;;;;4455825;32;20189;-74
2021/05/03 06:09:20;;;;;;;5.63;2.87;;;6.00;99.90;;;;;;4457197;32;20375;-74
2021/05/03 06:11:46;;;;;;;5.43;2.67;;;6.10;99.90;;;;;;4459156;32;20171;-74
2021/05/03 06:14:13;;;;;;;5.90;2.90;;;6.00;99.90;;;;;;4457574;32;20273;-74
2021/05/03 06:16:40;;;;;;;4.60;3.10;;;5.90;99.90;;;;;;4458905;32;20143;-74
2021/05/03 06:19:06;;;;;;;4.77;2.80;;;6.10;99.90;;;;;;4457453;32;20184;-74
2021/05/03 06:21:33;;;;;;;4.80;2.73;;;6.20;99.90;;;;;;4457241;32;20199;-74
2021/05/03 06:23:59;;;;;;;3.27;2.60;;;6.40;99.90;;;;;;4456797;32;20223;-75
2021/05/03 06:26:26;;;;;;;4.80;2.50;;;6.40;99.90;;;;;;4456743;32;20143;-75
2021/05/03 06:28:57;;;;;;;6.20;2.93;;;6.40;99.90;;;;;;4458221;32;20160;-75
2021/05/03 06:31:23;;;;;;;4.73;2.97;;;6.60;99.90;;;;;;4457303;32;20251;-75
2021/05/03 06:33:50;;;;;;;5.80;2.80;;;6.60;99.90;;;;;;4457222;32;20138;-75
2021/05/03 06:36:17;;;;;;;5.17;2.77;;;6.60;99.90;;;;;;4457525;32;20141;-75
2021/05/03 06:38:44;;;;;;;4.47;2.60;;;6.70;99.90;;;;;;4457279;32;20177;-75
2021/05/03 06:41:10;;;;;;;3.80;2.60;;;6.90;99.90;;;;;;4457221;32;20141;-74
2021/05/03 06:43:37;;;;;;;4.80;3.03;;;6.90;99.90;;;;;;4456659;32;20147;-74
2021/05/03 06:46:03;;;;;;;6.30;3.00;;;6.90;99.90;;;;;;4442866;32;20214;-75
2021/05/03 06:48:29;;;;;;;4.03;2.40;;;6.80;99.90;;;;;;4457278;32;20189;-75
2021/05/03 06:50:56;;;;;;;6.07;3.50;;;6.70;99.90;;;;;;4456986;32;20497;-74
2021/05/03 06:53:24;;;;;;;4.93;2.77;;;6.80;99.90;;;;;;4457358;32;20154;-75
2021/05/03 06:55:51;;;;;;;5.20;2.80;;;6.60;99.90;;;;;;4456639;32;20219;-75
2021/05/03 06:58:17;;;;;;;4.20;2.60;;;6.60;99.90;;;;;;4456956;32;20136;-75
2021/05/03 07:00:44;;;;;;;3.93;2.80;;;6.60;99.90;;;;;;4457141;32;20282;-70
2021/05/03 07:03:12;;;;;;;5.57;2.43;;;6.50;99.90;;;;;;4458303;32;20159;-70
2021/05/03 07:05:39;;;;;;;5.07;2.80;;;6.50;99.90;;;;;;4456773;32;20162;-70
2021/05/03 07:08:09;;;;;;;3.93;2.40;;;6.60;99.90;;;;;;4457803;32;20162;-70
2021/05/03 07:10:38;;;;;;;4.90;2.47;;;6.60;99.90;;;;;;4457257;32;20468;-70
2021/05/03 07:13:05;;;;;;;2.90;2.17;;;6.70;99.90;;;;;;4456934;32;20150;-70
2021/05/03 07:15:32;;;;;;;3.50;2.20;;;6.70;99.90;;;;;;4456704;32;20546;-70
2021/05/03 07:17:58;;;;;;;6.57;2.20;;;6.70;99.90;;;;;;4456127;32;20145;-70
2021/05/03 07:20:25;;;;;;;3.33;2.20;;;6.90;99.90;;;;;;4456532;32;20198;-70
2021/05/03 07:22:52;;;;;;;4.97;2.00;;;7.20;99.90;;;;;;4456691;32;20177;-70
2021/05/03 07:25:18;;;;;;;4.73;2.00;;;7.50;99.90;;;;;;4456391;32;20160;-70
2021/05/03 07:27:45;;;;;;;3.77;2.10;;;7.60;98.50;;;;;;4454434;32;20300;-70
2021/05/03 07:30:13;;;;;;;3.83;1.83;;;7.50;96.00;;;;;;4437432;32;20439;-70
2021/05/03 07:32:40;;;;;;;4.13;1.90;;;7.50;94.10;;;;;;4446033;32;20180;-75
2021/05/03 07:35:08;;;;;;;2.40;1.50;;;7.70;92.90;;;;;;4457271;32;20185;-70
2021/05/03 07:37:35;;;;;;;4.07;1.80;;;7.80;90.10;;;;;;4456278;32;20150;-70
2021/05/03 07:40:06;;;;;;;3.57;1.93;;;7.80;90.00;;;;;;4452044;32;20496;-71
2021/05/03 07:42:33;;;;;;;4.70;1.87;;;7.80;89.60;;;;;;4451559;32;20157;-70
2021/05/03 07:45:09;;;;;;;3.27;2.00;;;7.80;90.10;;;;;;4451795;32;20183;-70
2021/05/03 07:47:36;;;;;;;2.40;1.77;;;8.00;90.30;;;;;;4451820;32;20159;-70
2021/05/03 07:50:04;;;;;;;3.70;2.00;;;7.80;86.10;;;;;;4448404;32;20201;-71
2021/05/03 07:52:31;;;;;;;2.47;1.70;;;7.90;88.20;;;;;;4451245;32;20226;-71
2021/05/03 07:54:59;;;;;;;1.77;1.67;;;8.00;86.90;;;;;;4450599;32;20388;-71
2021/05/03 07:57:28;;;;;;;4.07;1.80;;;8.20;87.20;;;;;;4449107;32;20434;-71
2021/05/03 07:59:55;;;;;;;3.03;1.80;;;8.40;82.50;;;;;;4451122;32;20214;-70
2021/05/03 08:02:22;;;;;;;3.50;2.10;;;8.40;82.60;;;;;;4451129;32;20195;-71
2021/05/03 08:04:52;;;;;;;2.83;2.00;;;8.70;82.80;;;;;;4450949;32;20160;-71
2021/05/03 08:07:19;;;;;;;4.33;1.80;;;8.40;82.00;;;;;;4434114;32;20488;-71
2021/05/03 08:09:46;;;;;;;1.90;1.70;;;8.40;83.20;;;;;;4450422;32;20369;-70
2021/05/03 08:12:12;;;;;;;3.97;1.93;;;8.70;82.30;;;;;;4449462;32;20226;-71
2021/05/03 08:14:40;;;;;;;3.00;1.80;;;8.80;82.60;;;;;;4456160;32;20174;-71
2021/05/03 08:17:11;;;;;;;2.00;1.70;;;8.90;81.80;;;;;;4447327;32;20654;-81
2021/05/03 08:19:38;;;;;;;2.63;1.80;;;9.00;79.30;;;;;;4449429;32;20194;-76
2021/05/03 08:22:04;;;;;;;3.10;1.50;;;8.80;79.60;;;;;;4451809;32;20174;-74
2021/05/03 08:24:32;;;;;;;2.17;1.60;;;8.70;78.90;;;;;;4451922;32;20176;-76
2021/05/03 08:27:03;;;;;;;2.47;1.53;;;8.70;79.30;;;;;;4453296;32;20506;-74
2021/05/03 08:29:30;;;;;;;3.23;1.40;;;8.50;79.10;;;;;;4453056;32;20161;-75
2021/05/03 08:31:57;;;;;;;2.10;1.40;;;8.50;77.20;;;;;;4454642;32;20235;-75
2021/05/03 08:34:25;;;;;;;1.93;1.23;;;8.60;76.50;;;;;;4455043;32;20523;-77
2021/05/03 08:36:54;;;;;;;1.83;1.40;;;8.60;75.20;;;;;;4456085;32;20161;-76
2021/05/03 08:39:23;;;;;;;2.50;1.30;;;8.60;76.10;;;;;;4455548;32;20161;-79
2021/05/03 08:41:49;;;;;;;2.60;1.30;;;8.80;76.00;;;;;;4455401;32;20199;-74
2021/05/03 08:44:20;;;;;;;2.40;1.53;;;8.60;75.20;;;;;;4456964;32;20181;-76
2021/05/03 08:46:46;;;;;;;1.80;1.30;;;8.80;76.40;;;;;;4455332;32;20460;-75
2021/05/03 08:50:17;;;;;;;1.70;1.30;;;9.00;75.10;;;;;;4454528;32;20240;-76
2021/05/03 08:52:17;;;;;;;1.67;1.27;;;9.30;76.20;;;;;;4441967;32;20186;-76
2021/05/03 08:54:45;;;;;;;2.10;1.20;;;9.60;72.20;;;;;;4455263;32;20161;-75
2021/05/03 08:57:13;;;;;;;2.57;1.33;;;9.70;72.80;;;;;;4455137;32;20146;-76
2021/05/03 08:59:42;;;;;;;2.10;1.40;;;9.40;73.90;;;;;;4455573;32;20142;-77
2021/05/03 09:02:10;;;;;;;2.60;1.53;;;9.40;73.90;;;;;;4456480;32;20162;-77
2021/05/03 09:04:38;;;;;;;1.97;1.30;;;9.70;73.40;;;;;;4455880;32;20411;-75
2021/05/03 09:07:04;;;;;;;3.03;1.40;;;9.90;73.40;;;;;;4454998;32;20195;-77
2021/05/03 09:09:52;;;;;;;2.27;1.40;;;10.30;73.30;;;;;;4450648;32;20193;-73
2021/05/03 09:12:24;;;;;;;2.53;1.43;;;10.60;71.50;;;;;;4454727;32;20174;-72
2021/05/03 09:14:54;;;;;;;3.23;1.40;;;10.80;72.00;;;;;;4450392;32;20210;-73
2021/05/03 09:17:43;;;;;;;1.73;1.40;;;11.00;70.40;;;;;;4454603;32;20149;-72
2021/05/03 09:20:16;;;;;;;1.90;1.40;;;11.40;68.20;;;;;;4456463;32;20164;-71
2021/05/03 09:22:56;;;;;;;2.13;1.40;;;10.80;69.30;;;;;;4434583;32;20177;-74
2021/05/03 09:25:40;;;;;;;4.10;1.30;;;10.50;68.00;;;;;;4455643;32;20154;-72
2021/05/03 09:28:16;;;;;;;2.13;1.50;;;10.30;68.50;;;;;;4454872;32;20224;-72
2021/05/03 09:30:45;;;;;;;4.07;1.50;;;10.00;70.00;;;;;;4454875;32;20188;-72
2021/05/03 09:33:27;;;;;;;2.20;1.30;;;10.10;69.30;;;;;;4450734;32;20681;-76
2021/05/03 09:36:00;;;;;;;1.70;1.20;;;10.00;70.00;;;;;;4453707;32;20246;-76
2021/05/03 09:38:39;;;;;;;1.50;1.20;;;9.80;70.60;;;;;;4451401;32;20199;-76
2021/05/03 09:41:19;;;;;;;1.57;1.30;;;9.80;71.10;;;;;;4453455;32;20184;-74
2021/05/03 09:44:15;;;;;;;1.97;1.27;;;9.80;71.50;;;;;;4455337;32;20181;-75
2021/05/03 09:46:48;;;;;;;4.37;1.40;;;9.90;70.90;;;;;;4454378;32;20169;-76
2021/05/03 09:49:19;;;;;;;2.77;1.50;;;9.90;72.40;;;;;;4455295;32;20216;-76
2021/05/03 09:51:47;;;;;;;2.97;1.40;;;9.90;73.30;;;;;;4457550;32;20502;-77
2021/05/03 09:54:23;;;;;;;1.87;1.50;;;9.70;72.10;;;;;;4457746;32;20165;-77
2021/05/03 09:57:05;;;;;;;2.40;1.67;;;9.70;73.30;;;;;;4457987;32;20194;-75
2021/05/03 09:59:39;;;;;;;4.70;1.80;;;9.70;74.30;;;;;;4458157;32;20420;-75
2021/05/03 10:02:10;;;;;;;3.93;1.60;;;9.40;75.90;;;;;;4457289;32;20229;-75
2021/05/03 10:04:44;;;;;;;3.17;1.90;;;9.40;77.50;;;;;;4457065;32;20180;-75
2021/05/03 10:07:11;;;;;;;2.80;1.60;;;9.30;78.70;;;;;;4457548;32;20230;-75
2021/05/03 10:09:37;;;;;;;2.37;1.90;;;9.40;78.00;;;;;;4457145;32;20371;-75
2021/05/03 10:12:05;;;;;;;4.23;1.80;;;9.70;77.30;;;;;;4443831;32;20646;-75
2021/05/03 10:14:32;;;;;;;2.50;1.80;;;9.70;77.80;;;;;;4457576;32;20142;-76
2021/05/03 10:17:01;;;;;;;3.37;1.73;;;9.80;77.40;;;;;;4457033;32;20177;-69
2021/05/03 10:19:29;;;;;;;2.40;1.93;;;9.80;76.00;;;;;;4457266;32;20154;-73
2021/05/03 10:21:56;;;;;;;2.93;2.00;;;9.70;77.20;;;;;;4457396;32;20150;-69
2021/05/03 10:24:23;;;;;;;2.77;1.87;;;9.90;78.70;;;;;;4457390;32;20173;-71
2021/05/03 10:26:52;;;;;;;3.80;1.73;;;9.90;78.00;;;;;;4457893;32;20527;-71
2021/05/03 10:29:40;;;;;;;3.57;1.90;;;10.00;76.30;;;;;;4457313;32;20173;-72
2021/05/03 10:32:11;;;;;;;2.80;1.93;;;10.20;75.70;;;;;;4457017;32;20404;-74
2021/05/03 10:34:50;;;;;;;5.00;2.30;;;10.00;73.80;;;;;;4458678;32;20166;-75
2021/05/03 10:37:29;;;;;;;2.80;2.40;;;9.50;76.90;;;;;;4457688;32;20191;-76
2021/05/03 10:40:07;;;;;;;3.47;2.00;;;9.30;78.40;;;;;;4457243;32;20208;-75
2021/05/03 10:42:34;;;;;;;4.87;2.17;;;9.20;79.70;;;;;;4457295;32;20526;-73
2021/05/03 10:45:21;;;;;;;2.77;1.90;;;9.30;79.20;;;;;;4456979;32;20211;-76
2021/05/03 10:47:52;;;;;;;2.73;1.90;;;8.90;83.70;;;;;;4457827;32;20171;-75
2021/05/03 10:50:32;;;;;;;3.67;2.10;;;8.90;88.00;;;;;;4458904;32;20198;-75
2021/05/03 10:55:56;;;;;;;3.03;2.10;;;9.10;87.70;;;;;;4456537;32;20154;-75
2021/05/03 10:58:23;;;;;;;2.77;2.03;;;9.00;87.90;;;;;;4456867;32;20472;-75
2021/05/03 11:01:02;;;;;;;2.67;2.07;;;9.20;89.20;;;;;;4457029;32;20188;-74
2021/05/03 11:03:57;;;;;;;2.43;2.10;;;9.20;85.50;;;;;;4444419;32;20142;-75
2021/05/03 11:06:42;;;;;;;3.00;1.93;;;9.10;83.20;;;;;;4456640;32;20177;-75
2021/05/03 11:09:36;;;;;;;3.50;2.13;;;9.30;82.90;;;;;;4456754;32;20138;-75
2021/05/03 11:12:06;;;;;;;3.37;1.90;;;9.10;84.50;;;;;;4458400;32;20146;-74
2021/05/03 11:15:07;;;;;;;5.37;2.10;;;9.00;87.90;;;;;;4457246;32;20193;-75
2021/05/03 11:17:34;;;;;;;2.40;1.90;;;9.30;88.10;;;;;;4456186;32;20253;-75
2021/05/03 11:23:02;;;;;;;2.73;2.00;;;9.20;87.80;;;;;;4456706;32;20235;-75
2021/05/03 11:25:32;;;;;;;2.90;2.10;;;9.00;88.40;;;;;;4457933;32;20173;-75
2021/05/03 11:28:08;;;;;;;3.67;2.03;;;8.70;91.20;;;;;;4456634;32;20135;-76
2021/05/03 11:30:42;;;;;;;4.23;2.10;;;8.60;93.10;;;;;;4457537;32;20215;-75
2021/05/03 11:46:35;;;;;;;3.07;2.00;;;10.30;81.80;;;;;;4456294;32;20154;-76
2021/05/03 11:49:11;;;;;;;5.67;1.90;;;11.20;77.80;;;;;;4455888;32;20190;-77
2021/05/03 11:51:48;;;;;;;4.33;2.10;;;11.70;73.10;;;;;;4456613;32;20506;-76
2021/05/03 11:54:32;;;;;;;2.50;1.67;;;12.10;70.90;;;;;;4455795;32;20249;-77
2021/05/03 11:57:13;;;;;;;2.83;1.83;;;11.90;69.50;;;;;;4456511;32;20142;-76
2021/05/03 11:59:39;;;;;;;2.97;1.97;;;11.30;68.90;;;;;;4456856;32;20165;-75
2021/05/03 12:02:16;;;;;;;2.63;1.87;;;10.80;71.60;;;;;;4456270;32;20134;-76
2021/05/03 12:04:49;;;;;;;4.10;2.60;;;10.50;73.20;;;;;;4456810;32;20447;-76
2021/05/03 12:07:18;;;;;;;5.00;3.00;;;10.10;78.80;;;;;;4455503;32;20444;-75
2021/05/03 12:09:46;;;;;;;4.07;2.43;;;9.70;83.70;;;;;;4455986;32;20299;-74
2021/05/03 12:12:14;;;;;;;3.67;2.60;;;10.00;86.00;;;;;;4455840;32;20138;-76
2021/05/03 12:14:48;;;;;;;4.67;2.67;;;10.20;83.60;;;;;;4455780;32;20156;-76
2021/05/03 12:17:21;;;;;;;5.93;3.03;;;10.10;83.00;;;;;;4456859;32;20414;-76
2021/05/03 12:19:50;;;;;;;4.73;2.80;;;10.10;81.20;;;;;;4457066;32;20452;-76
2021/05/03 12:22:18;;;;;;;6.07;3.47;;;10.30;81.00;;;;;;4441432;32;20464;-76
2021/05/03 12:24:46;;;;;;;7.27;3.17;;;10.30;78.20;;;;;;4455526;32;20165;-75
2021/05/03 12:27:14;;;;;;;5.17;3.60;;;10.30;78.80;;;;;;4455447;32;20195;-75
2021/05/03 12:29:46;;;;;;;5.37;3.63;;;10.40;79.60;;;;;;4457060;32;20161;-76
2021/05/03 12:32:16;;;;;;;5.20;4.00;;;10.60;79.90;;;;;;4455778;32;20193;-75
2021/05/03 12:34:49;;;;;;;4.87;3.60;;;10.60;82.00;;;;;;4456985;32;20178;-75
2021/05/03 12:37:24;;;;;;;5.73;3.90;;;10.70;82.30;;;;;;4456286;32;20164;-76
2021/05/03 12:40:06;;;;;;;6.60;4.10;;;10.60;83.80;;;;;;4455351;32;20141;-75
2021/05/03 12:42:37;;;;;;;5.70;3.90;;;10.30;83.90;;;;;;4455401;32;20134;-75
2021/05/03 12:45:18;;;;;;;5.00;3.63;;;10.10;85.90;;;;;;4455357;32;20177;-75
2021/05/03 12:51:32;;;;;;;6.30;4.27;;;10.60;82.70;;;;;;4455372;32;20190;-74
2021/05/03 12:56:52;;;;;;;6.33;3.47;;;9.70;87.60;;;;;;4455073;32;20146;-76
2021/05/03 13:10:02;;;;;;;6.87;4.30;;;9.60;94.60;;;;;;4422504;32;20200;-75
2021/05/03 13:22:30;;;;;;;6.43;4.07;;;9.40;95.80;;;;;;4421881;32;20174;-75
2021/05/03 13:29:38;;;;;;;5.80;3.37;;;9.90;90.90;;;;;;4421921;32;20151;-75
2021/05/03 13:32:06;;;;;;;5.17;3.60;;;9.80;90.30;;;;;;4422872;32;20218;-75
2021/05/03 13:34:33;;;;;;;5.47;3.33;;;9.90;90.20;;;;;;4420344;32;20230;-76
2021/05/03 13:36:59;;;;;;;6.73;3.93;;;9.50;90.50;;;;;;4421959;32;20178;-75
2021/05/03 13:39:26;;;;;;;4.47;3.50;;;9.40;91.60;;;;;;4421849;32;20426;-76
2021/05/03 13:41:52;;;;;;;4.50;3.60;;;9.40;91.50;;;;;;4434665;32;20456;-76
2021/05/03 13:44:19;;;;;;;6.60;3.70;;;9.40;91.80;;;;;;4454874;32;20154;-75
2021/05/03 13:46:47;;;;;;;5.13;3.67;;;9.30;92.50;;;;;;4454637;32;20185;-75
2021/05/03 13:49:15;;;;;;;5.67;3.83;;;9.40;92.50;;;;;;4454947;32;20434;-76
2021/05/03 13:51:43;;;;;;;5.13;3.73;;;9.50;92.20;;;;;;4454748;32;20139;-74
2021/05/03 13:54:11;;;;;;;5.27;3.70;;;9.60;92.70;;;;;;4454054;32;20162;-77
2021/05/03 13:56:38;;;;;;;5.80;3.77;;;9.70;92.50;;;;;;4454587;32;20366;-76
2021/05/03 13:59:05;;;;;;;5.73;3.70;;;9.70;93.00;;;;;;4455979;32;20261;-76
2021/05/03 14:01:32;;;;;;;5.70;3.83;;;9.80;93.30;;;;;;4456684;32;20146;-75
2021/05/03 14:03:58;;;;;;;8.00;3.80;;;9.60;93.80;;;;;;4454603;32;20188;-75
2021/05/03 14:06:25;;;;;;;5.33;3.60;;;9.70;94.20;;;;;;4454741;32;20312;-75
2021/05/03 14:08:52;;;;;;;4.83;3.60;;;9.70;93.30;;;;;;4454792;32;20193;-75